Time;durP1;ratioP1;P1;durP2;ratioP2;P2;SDS_P1;SDS_P2;PMS_P1;PMS_P2;Temp;Humidity;BMP_temperature;BMP_pressure;BME280_temperature;BME280_humidity;BME280_pressure;Samples;Min_cycle;Max_cycle;Signal;HPM_P1;HPM_P2
2022/05/02 00:00:55;;;;;;;;;28.50;27.50;;;;;14.82;43.79;101313.69;5036301;28;45421;-53
2022/05/02 00:03:20;;;;;;;;;27.25;24.50;;;;;14.91;44.09;101309.59;5036812;28;45382;-52
2022/05/02 00:05:46;;;;;;;;;27.75;25.50;;;;;14.89;43.44;101306.22;5036437;28;46034;-52
2022/05/02 00:08:11;;;;;;;;;26.50;25.50;;;;;14.86;43.39;101304.75;5036254;28;45534;-54
2022/05/02 00:10:37;;;;;;;;;23.50;23.50;;;;;14.77;43.64;101295.88;5036500;28;45388;-55
2022/05/02 00:13:03;;;;;;;;;26.00;23.25;;;;;14.73;43.88;101302.91;5036560;28;45394;-57
2022/05/02 00:15:28;;;;;;;;;27.75;23.75;;;;;14.69;44.48;101295.28;5034832;28;45704;-52
2022/05/02 00:17:56;;;;;;;;;25.25;24.00;;;;;14.53;44.80;101291.19;5034762;28;45453;-49
2022/05/02 00:20:23;;;;;;;;;21.40;20.00;;;;;14.46;44.77;101278.28;5036128;28;45385;-53
2022/05/02 00:22:49;;;;;;;;;23.00;20.40;;;;;14.56;44.12;101286.06;5034716;28;45474;-51
2022/05/02 00:25:14;;;;;;;;;22.00;21.00;;;;;14.46;44.18;101244.31;5035840;28;46274;-49
2022/05/02 00:27:40;;;;;;;;;26.50;21.50;;;;;14.68;44.09;101280.63;5067632;28;45364;-55
2022/05/02 00:30:10;;;;;;;;;24.00;21.60;;;;;14.57;44.17;101262.03;5035877;28;45416;-53
2022/05/02 00:32:35;;;;;;;;;25.80;24.40;;;;;14.61;44.64;101282.59;5036120;28;45511;-49
2022/05/02 00:35:01;;;;;;;;;27.25;22.75;;;;;14.56;44.35;101279.69;5035502;28;46168;-50
2022/05/02 00:37:26;;;;;;;;;22.50;20.50;;;;;14.55;44.31;101280.75;5068311;28;45432;-52
2022/05/02 00:39:52;;;;;;;;;27.75;25.50;;;;;14.59;43.83;101273.72;5035812;28;45275;-53
2022/05/02 00:42:20;;;;;;;;;22.50;20.00;;;;;14.46;43.55;101244.31;5002970;28;45807;-55
2022/05/02 00:44:45;;;;;;;;;25.60;23.20;;;;;14.67;43.60;101276.19;5035848;28;46604;-54
2022/05/02 00:47:11;;;;;;;;;26.75;25.50;;;;;14.71;43.88;101266.38;5035534;28;45294;-54
2022/05/02 00:49:38;;;;;;;;;21.00;20.75;;;;;14.64;43.84;101251.78;5035967;28;45366;-54
2022/05/02 00:52:05;;;;;;;;;21.00;18.80;;;;;14.73;43.70;101264.22;5034561;28;45596;-51
2022/05/02 00:54:30;;;;;;;;;21.40;19.40;;;;;14.69;43.59;101264.91;5035730;28;46699;-53
2022/05/02 00:56:55;;;;;;;;;22.75;18.25;;;;;14.58;44.32;101258.22;5035733;28;45411;-53
2022/05/02 00:59:21;;;;;;;;;17.75;17.75;;;;;14.57;44.26;101253.75;5035373;28;45347;-55
2022/05/02 01:01:46;;;;;;;;;19.25;16.50;;;;;14.45;44.78;101242.59;5018144;28;45501;-52
2022/05/02 01:04:12;;;;;;;;;25.25;22.25;;;;;14.51;43.99;101247.22;5035238;28;45688;-52
2022/05/02 01:09:21;;;;;;;;;23.60;20.80;;;;;14.59;44.14;101243.31;5034260;28;45353;-53
2022/05/02 01:11:47;;;;;;;;;21.75;19.00;;;;;14.50;44.24;101234.47;5035668;28;45393;-53
2022/05/02 01:14:12;;;;;;;;;22.75;21.00;;;;;14.42;44.98;101232.88;5035040;28;45423;-50
2022/05/02 01:16:38;;;;;;;;;21.50;19.00;;;;;14.31;44.99;101228.06;5035078;28;45333;-55
2022/05/02 01:19:03;;;;;;;;;22.25;20.50;;;;;14.16;45.10;101200.78;5035364;28;45266;-54
2022/05/02 01:21:29;;;;;;;;;19.50;16.00;;;;;14.44;44.71;101235.38;5035436;28;45323;-54
2022/05/02 01:23:57;;;;;;;;;14.50;14.50;;;;;14.39;44.41;101230.53;5033639;28;45974;-54
2022/05/02 01:26:23;;;;;;;;;20.80;17.60;;;;;14.13;44.86;101188.28;5033232;28;45428;-54
2022/05/02 01:28:50;;;;;;;;;20.50;17.00;;;;;14.31;45.17;101228.06;5067708;28;45306;-51
2022/05/02 01:31:16;;;;;;;;;21.20;16.40;;;;;14.31;45.14;101228.88;5035087;28;45369;-50
2022/05/02 01:33:42;;;;;;;;;21.00;21.00;;;;;14.29;44.56;101231.03;5034868;28;45992;-52
2022/05/02 01:36:07;;;;;;;;;24.00;21.00;;;;;14.31;44.78;101230.81;5066977;28;45318;-51
2022/05/02 01:38:33;;;;;;;;;23.25;17.00;;;;;14.13;45.25;101215.06;5035998;28;45247;-55
2022/05/02 01:40:59;;;;;;;;;21.75;17.25;;;;;14.08;45.76;101235.00;5038649;28;45173;-54
2022/05/02 01:43:26;;;;;;;;;21.00;19.00;;;;;14.06;45.40;101231.66;5037093;28;46327;-53
2022/05/02 01:45:51;;;;;;;;;21.00;18.60;;;;;14.10;45.10;101219.94;5053347;28;45353;-51
2022/05/02 01:48:17;;;;;;;;;19.25;18.25;;;;;14.24;44.78;101233.63;5038518;28;45311;-51
2022/05/02 01:50:42;;;;;;;;;23.50;18.50;;;;;14.28;45.40;101232.13;5038299;28;45421;-54
2022/05/02 01:53:08;;;;;;;;;23.50;22.50;;;;;14.28;44.93;101232.13;5038001;28;46531;-57
2022/05/02 01:55:34;;;;;;;;;21.00;19.00;;;;;14.14;44.93;101203.75;5037751;28;45393;-58
2022/05/02 01:57:59;;;;;;;;;20.50;18.75;;;;;14.17;45.12;101208.84;5037176;28;45419;-52
2022/05/02 02:00:25;;;;;;;;;19.75;18.00;;;;;14.30;44.71;101229.97;5038331;28;45607;-49
2022/05/02 02:02:50;;;;;;;;;21.25;19.50;;;;;14.34;44.81;101230.34;5070664;27;47607;-50
2022/05/02 02:07:59;;;;;;;;;20.60;17.20;;;;;14.30;45.03;101237.41;5055401;28;45642;-53
2022/05/02 02:10:25;;;;;;;;;27.00;22.25;;;;;13.70;45.11;101134.69;5058655;28;45439;-53
2022/05/02 02:12:50;;;;;;;;;19.50;19.50;;;;;14.09;45.15;101215.47;5054098;28;46352;-53
2022/05/02 02:15:16;;;;;;;;;21.50;19.00;;;;;14.04;45.27;101201.50;5055669;28;45408;-55
2022/05/02 02:17:42;;;;;;;;;21.75;19.75;;;;;14.26;44.81;101230.66;5058410;28;45479;-53
2022/05/02 02:20:08;;;;;;;;;25.00;20.50;;;;;14.08;44.76;101197.22;5053128;28;45596;-51
2022/05/02 02:22:34;;;;;;;;;22.80;18.80;;;;;14.28;44.86;101228.50;5055661;28;45453;-49
2022/05/02 02:24:59;;;;;;;;;22.00;18.00;;;;;14.26;44.97;101220.47;5038080;28;45421;-55
2022/05/02 02:27:25;;;;;;;;;22.50;20.75;;;;;14.25;44.94;101226.19;5070505;28;45293;-58
2022/05/02 02:29:50;;;;;;;;;20.75;19.25;;;;;14.19;44.92;101217.75;5070538;28;45222;-58
2022/05/02 02:32:16;;;;;;;;;22.25;20.50;;;;;14.15;44.69;101216.50;5070043;28;47068;-49
2022/05/02 02:34:41;;;;;;;;;25.00;22.50;;;;;14.18;45.26;101224.34;5038002;28;45815;-54
2022/05/02 02:37:07;;;;;;;;;21.25;19.00;;;;;14.10;44.96;101213.56;5037844;28;45450;-55
2022/05/02 02:39:32;;;;;;;;;22.75;20.75;;;;;14.09;45.25;101211.91;5038165;28;45435;-54
2022/05/02 02:41:58;;;;;;;;;16.50;15.50;;;;;14.07;44.80;101209.34;5037435;28;46372;-55
2022/05/02 02:44:24;;;;;;;;;19.50;19.50;;;;;14.04;45.25;101207.03;5036618;28;45338;-51
2022/05/02 02:46:49;;;;;;;;;24.25;20.75;;;;;14.03;45.28;101210.84;5037621;28;45486;-51
2022/05/02 02:49:15;;;;;;;;;22.75;20.75;;;;;14.00;44.89;101200.28;5037153;28;45348;-51
2022/05/02 02:51:40;;;;;;;;;24.50;21.75;;;;;13.93;45.40;101200.31;5037522;28;46242;-54
2022/05/02 02:54:06;;;;;;;;;19.25;18.50;;;;;13.89;45.21;101218.41;5037324;28;45386;-55
2022/05/02 02:56:31;;;;;;;;;23.00;21.75;;;;;13.94;45.12;101212.22;5037839;28;45414;-51
2022/05/02 02:58:57;;;;;;;;;19.50;19.50;;;;;13.92;45.69;101208.81;5037474;28;45532;-52
2022/05/02 03:01:22;;;;;;;;;25.50;22.25;;;;;13.90;45.56;101200.78;5036785;28;46662;-57
2022/05/02 03:03:48;;;;;;;;;21.75;18.00;;;;;13.81;45.27;101175.34;5035904;28;45422;-58
2022/05/02 03:06:13;;;;;;;;;21.75;19.50;;;;;13.99;45.40;101206.00;5036598;28;45305;-57
2022/05/02 03:08:40;;;;;;;;;30.50;22.00;;;;;13.72;45.52;101162.88;5036295;28;45434;-51
2022/05/02 03:11:06;;;;;;;;;28.20;25.40;;;;;13.93;45.62;101202.25;5036545;28;47077;-52
2022/05/02 03:13:31;;;;;;;;;25.50;24.25;;;;;13.87;45.68;101183.81;5037002;28;45405;-56
2022/05/02 03:15:57;;;;;;;;;23.00;21.50;;;;;13.87;45.15;101178.31;5037097;28;45438;-54
2022/05/02 03:18:23;;;;;;;;;21.25;19.75;;;;;13.84;45.65;101176.84;5035663;28;45579;-56
2022/05/02 03:20:48;;;;;;;;;22.25;20.00;;;;;13.92;45.54;101179.31;5069186;28;46015;-52
2022/05/02 03:23:14;;;;;;;;;21.25;21.25;;;;;13.93;45.12;101185.69;5036343;28;45423;-53
2022/05/02 03:25:39;;;;;;;;;23.50;19.25;;;;;13.97;45.72;101186.91;5015779;28;45484;-52
2022/05/02 03:28:05;;;;;;;;;26.25;22.25;;;;;13.89;45.30;101179.78;5033541;28;45457;-51
2022/05/02 03:30:30;;;;;;;;;22.00;21.00;;;;;13.65;45.34;101142.78;5036487;28;45423;-54
2022/05/02 03:32:56;;;;;;;;;22.00;20.75;;;;;13.67;45.27;101146.19;5069234;28;45512;-53
2022/05/02 03:35:21;;;;;;;;;23.75;22.75;;;;;13.91;45.48;101185.03;5052107;28;45387;-52
2022/05/02 03:37:47;;;;;;;;;26.75;24.50;;;;;13.80;45.53;101170.06;5037107;28;45528;-49
2022/05/02 03:40:12;;;;;;;;;30.00;24.25;;;;;13.85;45.48;101181.28;5036266;28;45487;-50
2022/05/02 03:42:38;;;;;;;;;21.50;20.00;;;;;13.88;45.31;101185.50;5036609;28;45203;-56
2022/05/02 03:45:05;;;;;;;;;23.50;20.50;;;;;13.74;45.67;101166.28;5036688;28;45263;-56
2022/05/02 03:47:31;;;;;;;;;28.60;28.00;;;;;13.89;45.58;101182.53;5036316;28;45351;-57
2022/05/02 03:49:56;;;;;;;;;25.00;21.25;;;;;13.90;45.20;101184.22;5036452;28;46280;-58
2022/05/02 03:52:22;;;;;;;;;30.75;27.75;;;;;13.87;45.46;101178.31;5036156;28;45307;-53
2022/05/02 03:54:47;;;;;;;;;29.00;27.25;;;;;13.71;45.45;101154.84;5036695;28;45266;-50
2022/05/02 03:57:12;;;;;;;;;28.75;27.75;;;;;13.85;45.15;101184.03;5036463;28;45416;-49
2022/05/02 03:59:38;;;;;;;;;28.00;24.25;;;;;13.83;45.39;101177.91;5035802;28;45987;-54
2022/05/02 04:02:04;;;;;;;;;28.25;28.25;;;;;13.79;45.41;101177.50;5034792;28;45411;-54
2022/05/02 04:04:29;;;;;;;;;31.25;28.25;;;;;13.71;45.38;101180.50;5036073;28;45414;-52
2022/05/02 04:06:56;;;;;;;;;24.00;23.25;;;;;13.70;45.28;101181.59;5036119;28;45439;-51
2022/05/02 04:09:22;;;;;;;;;26.60;24.20;;;;;13.73;45.35;101172.03;5036346;28;45679;-52
2022/05/02 04:11:47;;;;;;;;;29.25;25.00;;;;;13.51;45.47;101128.25;5068209;28;45312;-53
2022/05/02 04:14:13;;;;;;;;;24.25;22.25;;;;;13.78;45.43;101178.56;5068466;28;45190;-52
2022/05/02 04:16:38;;;;;;;;;30.75;24.75;;;;;13.73;45.75;101183.91;5035951;28;45476;-54
2022/05/02 04:19:04;;;;;;;;;26.75;22.75;;;;;13.73;45.84;101177.53;5035860;28;45718;-56
2022/05/02 04:21:29;;;;;;;;;27.25;23.50;;;;;13.51;45.73;101137.34;5035866;28;45309;-54
2022/05/02 04:23:55;;;;;;;;;26.25;22.50;;;;;13.77;45.61;101187.06;5035691;28;45279;-50
2022/05/02 04:26:20;;;;;;;;;23.25;21.50;;;;;13.70;45.60;101176.06;5036262;28;45362;-51
2022/05/02 04:28:46;;;;;;;;;25.00;21.75;;;;;13.52;45.89;101152.88;5035221;28;45354;-57
2022/05/02 04:31:11;;;;;;;;;23.75;23.50;;;;;13.65;45.87;101179.50;5035877;28;45425;-57
2022/05/02 04:33:37;;;;;;;;;21.25;21.25;;;;;13.61;46.07;101185.69;5034515;28;45362;-56
2022/05/02 04:36:03;;;;;;;;;32.00;26.25;;;;;13.64;45.95;101187.97;5035777;28;45622;-50
2022/05/02 04:38:30;;;;;;;;;23.50;22.00;;;;;13.58;46.27;101175.06;5034513;28;46233;-52
2022/05/02 04:40:56;;;;;;;;;23.40;20.80;;;;;12.94;46.46;101090.38;5035247;28;45420;-51
2022/05/02 04:43:22;;;;;;;;;27.60;23.60;;;;;13.46;46.65;101181.31;5035858;28;45240;-52
2022/05/02 04:45:47;;;;;;;;;27.75;26.00;;;;;13.50;46.33;101184.47;5035473;28;45366;-54
2022/05/02 04:48:13;;;;;;;;;29.75;21.75;;;;;13.47;46.09;101163.72;5035125;28;45498;-55
2022/05/02 04:50:38;;;;;;;;;23.25;22.00;;;;;13.54;46.06;101174.69;5035777;28;45489;-54
2022/05/02 04:53:04;;;;;;;;;23.75;22.50;;;;;13.53;46.01;101173.84;5035360;28;45425;-51
2022/05/02 04:55:29;;;;;;;;;27.50;25.25;;;;;13.51;46.21;101186.16;5035767;28;45266;-54
2022/05/02 04:57:55;;;;;;;;;33.25;29.25;;;;;13.46;46.19;101180.47;5035122;28;46477;-51
2022/05/02 05:00:21;;;;;;;;;27.50;24.75;;;;;13.50;46.20;101179.78;5035412;28;45329;-52
2022/05/02 05:02:46;;;;;;;;;26.50;22.25;;;;;13.35;46.08;101155.22;5035314;28;45403;-52
2022/05/02 05:05:12;;;;;;;;;27.75;24.75;;;;;13.47;46.31;101184.91;5035918;28;45265;-51
2022/05/02 05:07:37;;;;;;;;;25.25;23.75;;;;;13.46;45.88;101183.22;5035279;28;45333;-50
2022/05/02 05:10:05;;;;;;;;;29.25;26.75;;;;;13.25;46.41;101150.19;5035314;28;45542;-49
2022/05/02 05:12:57;;;;;;;;;29.40;27.40;;;;;13.54;46.81;101180.19;5037941;28;45424;-52
2022/05/02 05:18:40;;;;;;;;;24.00;20.40;;;;;13.54;46.51;101185.72;5041145;28;45355;-47
2022/05/02 05:21:12;;;;;;;;;32.25;24.25;;;;;13.35;46.03;101155.22;5041959;28;45410;-50
2022/05/02 05:24:07;;;;;;;;;35.60;32.20;;;;;13.47;46.02;101187.66;5040907;28;45527;-57
2022/05/02 05:26:44;;;;;;;;;32.00;28.20;;;;;13.56;46.13;101186.34;5042201;28;45385;-56
2022/05/02 05:29:30;;;;;;;;;29.40;27.40;;;;;13.28;46.31;101163.56;5041355;28;46680;-50
2022/05/02 05:32:14;;;;;;;;;29.00;27.00;;;;;13.47;46.33;101191.28;5042053;28;45412;-53
2022/05/02 05:35:04;;;;;;;;;30.00;28.00;;;;;13.52;46.44;101191.47;5040851;28;45442;-54
2022/05/02 05:37:54;;;;;;;;;34.00;28.60;;;;;13.47;46.65;101193.19;5042166;28;45418;-55
2022/05/02 05:40:36;;;;;;;;;13.80;10.80;;;;;13.37;46.43;101197.22;5041470;28;46975;-50
2022/05/02 05:43:24;;;;;;;;;32.00;28.80;;;;;13.42;46.68;101186.41;5041571;28;45425;-53
2022/05/02 05:46:02;;;;;;;;;31.20;27.80;;;;;13.46;46.21;101189.59;5042107;28;45380;-50
2022/05/02 05:48:33;;;;;;;;;32.40;28.80;;;;;13.22;46.53;101158.06;5074054;28;45590;-57
2022/05/02 05:51:30;;;;;;;;;27.00;26.80;;;;;13.33;47.17;101184.94;5041755;28;45455;-52
2022/05/02 05:54:14;;;;;;;;;29.20;27.60;;;;;13.33;46.88;101178.59;5041756;28;45552;-51
2022/05/02 05:57:00;;;;;;;;;33.00;31.60;;;;;13.39;46.97;101184.06;5071941;28;45383;-50
2022/05/02 05:59:40;;;;;;;;;36.40;28.60;;;;;13.19;46.68;101151.09;5041708;28;45360;-53
2022/05/02 06:02:10;;;;;;;;;32.80;30.80;;;;;13.42;47.04;101186.41;5041392;28;46160;-58
2022/05/02 06:04:36;;;;;;;;;30.60;28.80;;;;;13.37;47.15;101188.97;5056679;28;45318;-49
2022/05/02 06:07:02;;;;;;;;;36.50;32.25;;;;;13.36;46.91;101173.50;5041260;28;45302;-50
2022/05/02 06:09:29;;;;;;;;;32.00;27.00;;;;;13.34;46.72;101152.72;5073789;28;45494;-53
2022/05/02 06:11:57;;;;;;;;;31.00;28.60;;;;;13.56;46.84;101189.13;5041153;28;46296;-53
2022/05/02 06:14:28;;;;;;;;;35.40;32.40;;;;;13.61;46.53;101189.28;5040895;28;45701;-47
2022/05/02 06:19:37;;;;;;;;;39.20;32.20;;;;;13.63;46.38;101197.34;5040221;28;45452;-51
2022/05/02 06:22:04;;;;;;;;;34.75;33.00;;;;;13.62;46.38;101190.13;5056590;28;46348;-53
2022/05/02 06:24:31;;;;;;;;;39.40;32.20;;;;;13.71;46.32;101199.00;5034404;28;45459;-58
2022/05/02 06:26:56;;;;;;;;;35.20;31.60;;;;;13.55;46.10;101163.44;5003823;28;45390;-55
2022/05/02 06:29:22;;;;;;;;;42.75;34.00;;;;;13.70;46.28;101189.84;5036073;28;45407;-57
2022/05/02 06:31:50;;;;;;;;;38.00;33.00;;;;;13.73;46.09;101194.94;5037816;28;45397;-57
2022/05/02 06:34:28;;;;;;;;;37.20;31.00;;;;;13.65;46.55;101201.56;5036575;28;45384;-57
2022/05/02 06:37:17;;;;;;;;;40.20;33.20;;;;;13.69;46.21;101199.22;5036603;28;45502;-50
2022/05/02 06:39:57;;;;;;;;;36.80;31.80;;;;;13.79;46.24;101194.06;5035834;28;45588;-50
2022/05/02 06:42:39;;;;;;;;;37.00;33.20;;;;;13.67;46.29;101160.81;5036064;28;45866;-55
2022/05/02 06:45:25;;;;;;;;;40.00;36.00;;;;;13.88;45.80;101191.03;5037193;28;45336;-57
2022/05/02 06:48:13;;;;;;;;;39.00;33.20;;;;;13.83;46.04;101189.78;5036962;28;45532;-57
2022/05/02 06:50:39;;;;;;;;;35.80;30.80;;;;;13.79;46.16;101188.53;5036244;28;45478;-54
2022/05/02 06:53:30;;;;;;;;;43.00;37.00;;;;;13.86;45.74;101198.69;5036640;28;46060;-49
2022/05/02 06:56:16;;;;;;;;;39.60;35.60;;;;;13.82;45.74;101198.25;5037547;28;45437;-58
2022/05/02 06:58:49;;;;;;;;;30.20;28.60;;;;;13.90;45.77;101197.16;5035458;28;45420;-57
2022/05/02 07:01:30;;;;;;;;;35.80;32.40;;;;;13.66;45.98;101177.59;5037214;28;45464;-53
2022/05/02 07:04:13;;;;;;;;;40.40;36.40;;;;;13.85;46.54;101191.44;5035286;28;46236;-56
2022/05/02 07:07:01;;;;;;;;;38.00;31.50;;;;;13.92;46.59;101203.28;5035155;28;45276;-51
2022/05/02 07:09:45;;;;;;;;;47.20;38.00;;;;;13.80;45.90;101172.81;5035977;28;45384;-55
2022/05/02 07:12:19;;;;;;;;;42.40;35.80;;;;;13.44;46.18;101117.22;5036968;28;45339;-55
2022/05/02 07:14:59;;;;;;;;;41.60;33.80;;;;;13.95;46.37;101203.72;5036106;28;46521;-52
2022/05/02 07:17:45;;;;;;;;;54.80;43.00;;;;;14.06;46.13;101206.81;5036817;28;45521;-52
2022/05/02 07:20:28;;;;;;;;;46.20;36.80;;;;;14.14;45.85;101195.47;5036758;28;45416;-51
2022/05/02 07:23:34;;;;;;;;;40.80;35.40;;;;;14.15;46.22;101199.09;5036462;28;45457;-50
2022/05/02 07:26:06;;;;;;;;;51.00;39.20;;;;;14.18;46.04;101193.13;5034199;28;46437;-58
2022/05/02 07:28:46;;;;;;;;;40.20;34.40;;;;;14.25;46.09;101204.13;5046094;28;45478;-56
2022/05/02 07:31:19;;;;;;;;;40.40;35.40;;;;;14.35;45.57;101199.78;5033294;28;45327;-54
2022/05/02 07:33:46;;;;;;;;;40.60;33.00;;;;;14.39;45.43;101202.06;5036420;28;45310;-50
2022/05/02 07:36:15;;;;;;;;;33.40;32.60;;;;;14.38;45.46;101204.00;5035897;28;45912;-53
2022/05/02 07:38:40;;;;;;;;;40.80;35.20;;;;;14.19;45.38;101165.28;5035726;28;45414;-53
2022/05/02 07:41:23;;;;;;;;;42.00;36.00;;;;;14.47;45.67;101199.88;5051701;28;45369;-53
2022/05/02 07:43:50;;;;;;;;;40.60;35.80;;;;;14.41;45.24;101188.91;5036589;28;45960;-49
2022/05/02 07:46:39;;;;;;;;;37.60;34.20;;;;;14.61;45.35;101200.59;5068489;28;45681;-49
2022/05/02 07:49:06;;;;;;;;;36.80;34.00;;;;;14.44;45.44;101166.34;5035863;28;45562;-54
2022/05/02 07:51:32;;;;;;;;;47.80;36.40;;;;;14.75;44.80;101201.34;5036277;28;45322;-51
2022/05/02 07:53:59;;;;;;;;;43.25;35.50;;;;;14.81;44.58;101198.72;5068279;28;45467;-50
2022/05/02 07:56:26;;;;;;;;;41.80;35.20;;;;;14.75;44.78;101189.44;5035919;28;46494;-52
2022/05/02 07:58:53;;;;;;;;;42.40;35.80;;;;;14.58;44.76;101151.31;5035598;28;45632;-50
2022/05/02 08:01:19;;;;;;;;;35.20;34.20;;;;;14.86;44.61;101201.63;5051365;27;46412;-50
2022/05/02 08:03:47;;;;;;;;;45.20;37.40;;;;;14.68;44.63;101177.56;5036055;28;45436;-54
2022/05/02 08:06:29;;;;;;;;;47.25;36.75;;;;;14.75;44.31;101172.84;5034440;28;45983;-50
2022/05/02 08:09:17;;;;;;;;;36.00;33.00;;;;;15.00;44.56;101205.94;5066363;28;45408;-54
2022/05/02 08:12:10;;;;;;;;;45.40;37.60;;;;;15.01;44.54;101199.31;5036012;28;45324;-51
2022/05/02 08:14:54;;;;;;;;;39.40;35.80;;;;;15.08;44.24;101210.31;5050254;28;45544;-53
2022/05/02 08:17:30;;;;;;;;;41.00;35.60;;;;;15.09;43.73;101194.59;5050776;28;46891;-54
2022/05/02 08:20:01;;;;;;;;;45.80;37.40;;;;;15.16;44.23;101198.94;4983015;27;45434;-55
2022/05/02 08:28:55;;;;;;;;;45.40;37.80;;;;;15.47;43.30;101198.97;5033471;28;45356;-49
2022/05/02 08:31:33;;;;;;;;;44.00;38.20;;;;;15.41;43.61;101199.91;5023946;28;45396;-51
2022/05/02 08:34:13;;;;;;;;;44.20;37.80;;;;;15.45;43.35;101193.69;5034573;28;45838;-54
2022/05/02 08:36:49;;;;;;;;;45.20;37.20;;;;;15.51;43.70;101179.97;5050058;27;45373;-53
2022/05/02 08:39:15;;;;;;;;;41.60;36.00;;;;;15.59;43.68;101182.44;5033402;28;46752;-52
2022/05/02 08:41:52;;;;;;;;;48.25;39.00;;;;;15.64;43.14;101178.97;5034874;28;45302;-55
2022/05/02 08:44:42;;;;;;;;;45.80;38.20;;;;;15.42;43.72;101149.06;5033942;28;45338;-53
2022/05/02 08:47:26;;;;;;;;;43.80;38.60;;;;;15.71;42.96;101194.38;5034682;28;45799;-53
2022/05/02 08:50:16;;;;;;;;;53.00;41.60;;;;;15.71;43.68;101194.38;5033406;28;46231;-54
2022/05/02 08:52:45;;;;;;;;;41.60;38.00;;;;;15.62;43.48;101159.00;5035647;28;45358;-53
2022/05/02 08:55:30;;;;;;;;;52.20;40.40;;;;;15.68;43.52;101194.00;5034283;28;45425;-54
2022/05/02 08:58:25;;;;;;;;;50.00;39.00;;;;;15.76;43.33;101204.75;5035355;28;45342;-54
2022/05/02 09:01:35;;;;;;;;;49.00;41.00;;;;;15.87;43.56;101194.78;5059328;28;45845;-58
2022/05/02 09:04:25;;;;;;;;;44.20;38.60;;;;;15.99;42.94;101197.63;5032185;28;45366;-50
2022/05/02 09:07:26;;;;;;;;;48.00;38.00;;;;;16.05;42.76;101204.97;5033906;28;45474;-55
2022/05/02 09:09:58;;;;;;;;;50.20;39.40;;;;;15.90;43.42;101166.63;5032414;28;45395;-53
2022/05/02 09:12:42;;;;;;;;;52.80;41.40;;;;;16.09;43.12;101200.66;5067146;28;45511;-52
2022/05/02 09:15:36;;;;;;;;;53.20;42.60;;;;;16.11;42.98;101190.19;5034807;28;45453;-57
2022/05/02 09:18:42;;;;;;;;;50.60;39.20;;;;;16.07;42.92;101190.91;5034617;28;45398;-56
2022/05/02 09:21:24;;;;;;;;;53.50;40.75;;;;;16.02;43.23;101188.00;5032320;28;46024;-50
2022/05/02 09:23:57;;;;;;;;;50.80;38.80;;;;;15.99;43.22;101178.22;5034628;28;45455;-54
2022/05/02 09:26:49;;;;;;;;;50.40;43.20;;;;;16.10;42.86;101191.25;5035586;28;45432;-53
2022/05/02 09:29:37;;;;;;;;;49.80;39.80;;;;;16.18;43.05;101192.00;5017511;28;45408;-54
2022/05/02 09:32:11;;;;;;;;;49.60;38.80;;;;;16.21;42.85;101169.34;5034999;28;45550;-53
2022/05/02 09:34:47;;;;;;;;;52.40;41.40;;;;;16.24;42.34;101149.50;5067002;28;45998;-50
2022/05/02 09:37:24;;;;;;;;;48.40;37.60;;;;;16.59;42.48;101178.28;5049493;28;45474;-52
2022/05/02 09:40:17;;;;;;;;;47.40;39.60;;;;;16.70;42.57;101182.97;5033457;28;45469;-53
2022/05/02 09:42:50;;;;;;;;;50.00;38.00;;;;;16.88;42.07;101182.00;5055695;28;45452;-51
2022/05/02 09:51:51;;;;;;;;;48.60;40.60;;;;;16.98;42.24;101174.97;4991568;28;46329;-52
2022/05/02 09:57:22;;;;;;;;;44.60;35.80;;;;;17.23;41.66;101171.91;5028724;28;45456;-55
2022/05/02 10:02:48;;;;;;;;;40.40;34.20;;;;;17.34;41.49;101161.84;5035792;28;45500;-53
2022/05/02 10:05:54;;;;;;;;;46.80;37.40;;;;;17.43;41.66;101171.47;5019175;28;45398;-57
2022/05/02 10:09:04;;;;;;;;;49.80;37.40;;;;;17.43;41.62;101162.31;5013614;28;46305;-54
2022/05/02 10:11:49;;;;;;;;;42.40;36.60;;;;;17.54;41.19;101166.97;4992302;28;45887;-50
2022/05/02 10:14:20;;;;;;;;;38.00;34.40;;;;;17.52;41.28;101155.28;5010434;28;45528;-55
2022/05/02 10:16:59;;;;;;;;;44.40;34.40;;;;;17.61;41.32;101166.81;5029530;28;45660;-56
2022/05/02 10:19:34;;;;;;;;;35.00;29.80;;;;;17.69;41.40;101158.09;5034789;28;45798;-50
2022/05/02 10:22:34;;;;;;;;;43.00;35.60;;;;;17.86;41.02;101160.03;5035354;28;45395;-50
2022/05/02 10:25:02;;;;;;;;;36.60;32.60;;;;;17.91;40.99;101162.91;5034757;28;45379;-55
2022/05/02 10:28:02;;;;;;;;;43.80;35.40;;;;;17.93;40.73;101148.78;5037199;28;45612;-51
2022/05/02 10:30:29;;;;;;;;;37.20;33.20;;;;;18.10;40.60;101154.34;5037243;28;46174;-53
2022/05/02 10:32:56;;;;;;;;;44.40;36.20;;;;;18.18;40.43;101153.94;5018065;28;45429;-57
2022/05/02 10:35:23;;;;;;;;;43.40;34.00;;;;;18.10;40.25;101121.03;5037569;28;45841;-50
2022/05/02 10:37:56;;;;;;;;;36.00;33.80;;;;;18.35;39.90;101144.75;5037506;28;45456;-54
2022/05/02 10:40:40;;;;;;;;;36.00;33.00;;;;;18.42;39.88;101151.78;5069064;28;45736;-56
2022/05/02 10:43:07;;;;;;;;;39.80;36.00;;;;;18.46;39.61;101137.41;5036838;28;45400;-53
2022/05/02 10:45:35;;;;;;;;;35.80;32.00;;;;;18.54;39.69;101143.38;5036367;28;45426;-57
2022/05/02 10:48:31;;;;;;;;;37.00;33.80;;;;;18.59;39.79;101133.41;5037469;28;45353;-54
2022/05/02 10:51:26;;;;;;;;;32.00;30.80;;;;;18.73;39.42;101142.22;5018972;28;47862;-55
2022/05/02 10:54:09;;;;;;;;;36.00;32.80;;;;;18.83;39.27;101132.06;5035963;28;46166;-54
2022/05/02 10:56:44;;;;;;;;;35.40;32.20;;;;;18.89;38.98;101123.78;4984521;27;46378;-55
2022/05/02 10:59:14;;;;;;;;;35.60;32.60;;;;;19.00;38.94;101124.75;5015660;28;45556;-50
2022/05/02 11:01:58;;;;;;;;;34.20;30.00;;;;;19.12;39.11;101106.03;5012598;28;45470;-52
2022/05/02 11:04:36;;;;;;;;;36.20;32.20;;;;;19.38;38.39;101123.00;5028126;28;45415;-52
2022/05/02 11:07:13;;;;;;;;;38.60;30.60;;;;;19.17;39.00;101082.97;5030500;28;45837;-52
2022/05/02 11:10:03;;;;;;;;;30.00;25.40;;;;;19.54;38.35;101112.88;5032485;28;45680;-55
2022/05/02 11:12:31;;;;;;;;;33.80;31.40;;;;;19.55;37.72;101116.47;5029905;28;45486;-51
2022/05/02 11:15:18;;;;;;;;;33.80;30.20;;;;;19.47;37.92;101118.63;5031320;28;45798;-52
2022/05/02 11:17:50;;;;;;;;;28.20;27.20;;;;;19.50;38.10;101106.13;5022416;27;45968;-53
2022/05/02 11:20:42;;;;;;;;;32.40;29.20;;;;;19.39;38.48;101112.69;5032642;28;45540;-52
2022/05/02 11:23:31;;;;;;;;;30.80;28.40;;;;;19.27;38.30;101097.00;5032584;28;46574;-53
2022/05/02 11:26:07;;;;;;;;;30.00;26.80;;;;;19.19;38.41;101101.09;5032476;28;45499;-59
2022/05/02 11:28:40;;;;;;;;;27.20;25.40;;;;;19.06;38.30;101079.25;5031338;28;45576;-56
2022/05/02 11:31:37;;;;;;;;;29.80;27.60;;;;;19.24;38.37;101108.66;5031838;28;45865;-56
2022/05/02 11:34:13;;;;;;;;;33.00;29.00;;;;;19.32;38.25;101110.94;5032426;28;46720;-60
2022/05/02 11:36:49;;;;;;;;;27.20;26.60;;;;;19.08;38.75;101071.47;5031950;28;45446;-55
2022/05/02 11:39:37;;;;;;;;;26.20;26.20;;;;;19.12;38.38;101088.47;5031145;28;45402;-55
2022/05/02 11:42:14;;;;;;;;;28.80;25.40;;;;;19.23;38.37;101085.53;5060085;28;45460;-51
2022/05/02 11:45:07;;;;;;;;;33.00;30.80;;;;;19.23;38.22;101085.53;5031995;28;45879;-53
2022/05/02 11:47:56;;;;;;;;;33.60;30.00;;;;;19.03;38.67;101065.84;5058189;28;45555;-59
2022/05/02 11:50:26;;;;;;;;;29.00;28.00;;;;;19.27;38.71;101097.00;5059639;28;45519;-52
2022/05/02 11:52:56;;;;;;;;;33.20;29.20;;;;;19.24;38.08;101061.34;5031323;28;45432;-56
2022/05/02 11:55:33;;;;;;;;;27.20;26.00;;;;;19.54;37.91;101096.16;5009695;27;47385;-47
2022/05/02 11:58:08;;;;;;;;;39.40;30.60;;;;;19.42;37.96;101065.69;5032294;28;45711;-51
2022/05/02 12:00:35;;;;;;;;;32.40;30.40;;;;;19.72;37.74;101096.84;5030859;28;45895;-55
2022/05/02 12:03:12;;;;;;;;;30.00;29.20;;;;;19.72;37.53;101097.72;5030917;28;45461;-54
2022/05/02 12:05:52;;;;;;;;;28.80;24.00;;;;;19.51;37.64;101074.41;5015829;28;46537;-54